Time;durP1;ratioP1;P1;durP2;ratioP2;P2;SDS_P1;SDS_P2;PMS_P1;PMS_P2;Temp;Humidity;BMP_temperature;BMP_pressure;BME280_temperature;BME280_humidity;BME280_pressure;Samples;Min_cycle;Max_cycle;Signal;HPM_P1;HPM_P2
2024/01/01 15:04:10;;;;;;;2.07;0.70;;;8.90;99.90;;;;;;5109929;27;20582;-88
2024/01/01 15:06:37;;;;;;;2.87;0.70;;;8.80;99.90;;;;;;5110384;28;20575;-88
2024/01/01 15:09:06;;;;;;;1.63;0.40;;;8.80;99.90;;;;;;5109659;28;20167;-88
2024/01/01 15:11:32;;;;;;;2.50;0.70;;;8.80;99.90;;;;;;5109302;28;20159;-88
2024/01/01 15:13:58;;;;;;;2.23;0.70;;;8.80;99.90;;;;;;5109258;28;20174;-89
2024/01/01 15:16:24;;;;;;;1.97;0.60;;;8.80;99.90;;;;;;5108713;28;20247;-88
2024/01/01 15:18:49;;;;;;;2.60;0.60;;;8.80;99.90;;;;;;5109041;28;20183;-87
2024/01/01 15:21:16;;;;;;;2.33;0.73;;;8.80;99.90;;;;;;5109023;28;20167;-88
2024/01/01 15:23:41;;;;;;;1.93;0.50;;;8.80;99.90;;;;;;5108032;28;20198;-88
2024/01/01 15:26:07;;;;;;;0.57;0.30;;;8.80;99.90;;;;;;5109094;28;20183;-88
2024/01/01 15:28:33;;;;;;;1.23;0.50;;;8.80;99.90;;;;;;5109225;28;20182;-88
2024/01/01 15:30:58;;;;;;;0.80;0.30;;;8.80;99.90;;;;;;5108714;28;20167;-89
2024/01/01 15:33:26;;;;;;;1.67;0.70;;;8.80;99.90;;;;;;5108035;28;20254;-88
2024/01/01 15:35:52;;;;;;;1.70;0.50;;;8.70;99.90;;;;;;5109382;28;20174;-87
2024/01/01 15:38:21;;;;;;;1.50;0.40;;;8.70;99.90;;;;;;5099442;28;20176;-87
2024/01/01 15:40:47;;;;;;;1.07;0.30;;;8.70;99.90;;;;;;5090504;28;20226;-86
2024/01/01 15:43:12;;;;;;;1.53;0.30;;;8.70;99.90;;;;;;5089337;28;20172;-89
2024/01/01 15:45:39;;;;;;;1.23;0.43;;;8.80;99.90;;;;;;5089653;28;20645;-88
2024/01/01 15:48:05;;;;;;;0.87;0.40;;;8.70;99.90;;;;;;5088778;28;20632;-87
2024/01/01 15:50:31;;;;;;;0.60;0.20;;;8.70;99.90;;;;;;5088538;28;20183;-87
2024/01/01 15:52:57;;;;;;;0.73;0.10;;;8.80;99.90;;;;;;5089386;28;20223;-92
2024/01/01 15:55:23;;;;;;;0.97;0.40;;;8.80;99.90;;;;;;5090476;28;20274;-90
2024/01/01 15:57:48;;;;;;;3.03;1.10;;;8.80;99.90;;;;;;5089764;28;20676;-89
2024/01/01 16:00:15;;;;;;;1.03;0.60;;;9.00;99.90;;;;;;5089565;28;20502;-89
2024/01/01 16:02:40;;;;;;;1.10;0.50;;;8.80;99.90;;;;;;5092841;28;20251;-91
2024/01/01 16:05:06;;;;;;;1.60;0.70;;;8.80;99.90;;;;;;5084483;28;20217;-93
2024/01/01 16:07:32;;;;;;;0.80;0.40;;;8.80;99.90;;;;;;5095725;28;20196;-90
2024/01/01 16:09:58;;;;;;;1.73;0.93;;;8.60;99.90;;;;;;5094471;28;20182;-91
2024/01/01 16:12:25;;;;;;;1.77;0.80;;;8.70;99.90;;;;;;5095245;28;20207;-89
2024/01/01 16:14:52;;;;;;;1.30;0.90;;;8.70;99.90;;;;;;5094554;28;20241;-87
2024/01/01 16:17:19;;;;;;;0.70;0.20;;;8.70;99.90;;;;;;5090783;28;20168;-89
2024/01/01 16:19:45;;;;;;;0.40;0.20;;;8.80;99.90;;;;;;5093843;28;20168;-76
2024/01/01 16:22:13;;;;;;;0.50;0.20;;;8.70;99.90;;;;;;5093625;28;20175;-77
2024/01/01 16:24:39;;;;;;;0.50;0.20;;;8.80;99.90;;;;;;5094025;28;20225;-77
2024/01/01 16:27:04;;;;;;;0.20;0.03;;;8.80;99.90;;;;;;5081663;28;20176;-79
2024/01/01 16:29:30;;;;;;;0.33;0.07;;;8.90;99.90;;;;;;5072637;28;20280;-80
2024/01/01 16:31:56;;;;;;;0.20;0.10;;;8.90;99.90;;;;;;5078704;28;20669;-84
2024/01/01 16:34:22;;;;;;;0.20;0.20;;;8.90;99.90;;;;;;5091580;28;20202;-79
2024/01/01 16:36:55;;;;;;;0.20;0.10;;;8.80;99.90;;;;;;5076517;28;20542;-80
2024/01/01 16:39:24;;;;;;;0.30;0.20;;;8.90;99.90;;;;;;5073029;28;20173;-79
2024/01/01 16:41:51;;;;;;;0.03;0.03;;;8.80;99.90;;;;;;5072754;28;20195;-79
2024/01/01 16:44:17;;;;;;;0.40;0.10;;;8.90;99.90;;;;;;5091533;28;20180;-79
2024/01/01 16:46:43;;;;;;;0.10;0.10;;;8.90;99.90;;;;;;5092620;28;20193;-79
2024/01/01 16:49:09;;;;;;;0.20;0.20;;;8.90;99.90;;;;;;5093587;28;20183;-83
2024/01/01 16:51:38;;;;;;;0.60;0.17;;;8.90;99.90;;;;;;5092259;28;20176;-80
2024/01/01 16:54:05;;;;;;;0.10;0.10;;;8.90;99.90;;;;;;5081160;28;20195;-79
2024/01/01 16:56:31;;;;;;;0.30;0.10;;;;;;;;;;5092688;28;20179;-83
2024/01/01 16:58:57;;;;;;;0.10;0.00;;;8.90;99.90;;;;;;5092560;28;20172;-79
2024/01/01 17:01:24;;;;;;;0.20;0.10;;;9.00;99.90;;;;;;5080948;28;20645;-78
2024/01/01 17:03:50;;;;;;;0.10;0.00;;;9.10;99.90;;;;;;5079545;28;20216;-82
2024/01/01 17:06:19;;;;;;;0.00;0.00;;;9.10;99.90;;;;;;5072208;28;20590;-80
2024/01/01 17:08:45;;;;;;;0.03;0.00;;;9.20;99.90;;;;;;5083966;28;20168;-79
2024/01/01 17:11:11;;;;;;;0.10;0.00;;;9.30;99.90;;;;;;5092083;28;20172;-79
2024/01/01 17:13:41;;;;;;;0.10;0.00;;;9.40;99.90;;;;;;5078636;28;20208;-78
2024/01/01 17:16:14;;;;;;;0.10;0.00;;;9.60;99.90;;;;;;5069801;28;20543;-80
2024/01/01 17:18:41;;;;;;;0.00;0.00;;;9.60;99.90;;;;;;5071470;28;20656;-79
2024/01/01 17:21:08;;;;;;;0.10;0.00;;;9.60;99.90;;;;;;5072048;28;20245;-79
2024/01/01 17:23:33;;;;;;;0.27;0.10;;;9.70;99.90;;;;;;5073170;28;20165;-81
2024/01/01 17:26:01;;;;;;;0.10;0.00;;;9.80;99.90;;;;;;5070999;28;20181;-84
2024/01/01 17:28:27;;;;;;;0.00;0.00;;;9.80;99.90;;;;;;5073499;28;20200;-83
2024/01/01 17:30:53;;;;;;;0.10;0.07;;;9.90;99.90;;;;;;5076634;28;20580;-79
2024/01/01 17:33:19;;;;;;;0.10;0.00;;;9.90;99.90;;;;;;5084580;28;20203;-77
2024/01/01 17:35:44;;;;;;;0.23;0.00;;;9.90;99.90;;;;;;5091643;28;20525;-76
2024/01/01 17:38:10;;;;;;;0.10;0.00;;;10.00;99.90;;;;;;5090651;28;20179;-77
2024/01/01 17:40:35;;;;;;;0.10;0.00;;;9.90;99.90;;;;;;5091040;28;20156;-77
2024/01/01 17:43:01;;;;;;;0.00;0.00;;;10.00;99.90;;;;;;5077782;28;20282;-76
2024/01/01 17:45:27;;;;;;;0.10;0.00;;;10.10;99.90;;;;;;5084017;28;20195;-75
2024/01/01 17:47:52;;;;;;;0.10;0.00;;;10.10;99.90;;;;;;5072292;28;20641;-76
2024/01/01 17:50:18;;;;;;;0.10;0.00;;;10.10;99.90;;;;;;5071545;28;20180;-77
2024/01/01 17:52:44;;;;;;;0.20;0.00;;;10.40;99.90;;;;;;5070895;28;20543;-77
2024/01/01 17:55:13;;;;;;;0.00;0.00;;;10.10;99.90;;;;;;5071825;28;20704;-79
2024/01/01 17:57:39;;;;;;;0.27;0.00;;;10.10;99.90;;;;;;5087554;28;20690;-77
2024/01/01 18:00:05;;;;;;;0.10;0.00;;;10.10;99.90;;;;;;5091437;28;20176;-77
2024/01/01 18:02:31;;;;;;;0.10;0.00;;;10.30;99.90;;;;;;5090046;28;20227;-76
2024/01/01 18:04:58;;;;;;;0.20;0.00;;;10.30;99.90;;;;;;5088543;28;20650;-76
2024/01/01 18:07:24;;;;;;;0.53;0.10;;;10.50;99.90;;;;;;5070633;28;20191;-78
2024/01/01 18:09:50;;;;;;;0.30;0.07;;;10.30;99.90;;;;;;5071074;28;20161;-76
2024/01/01 18:12:16;;;;;;;0.10;0.00;;;10.40;99.90;;;;;;5070728;28;20240;-78
2024/01/01 18:14:42;;;;;;;0.10;0.00;;;10.40;99.90;;;;;;5076384;28;20668;-75
2024/01/01 18:17:07;;;;;;;0.30;0.00;;;10.40;99.90;;;;;;5081586;28;20191;-76
2024/01/01 18:19:33;;;;;;;0.30;0.10;;;10.50;99.90;;;;;;5077358;28;20164;-77
2024/01/01 18:21:59;;;;;;;0.20;0.10;;;;;;;;;;5090932;28;20168;-76
2024/01/01 18:24:24;;;;;;;0.17;0.10;;;10.50;99.90;;;;;;5091540;28;20182;-76
2024/01/01 18:26:50;;;;;;;0.17;0.10;;;10.50;99.90;;;;;;5091548;28;20172;-77
2024/01/01 18:29:16;;;;;;;0.00;0.00;;;10.50;99.90;;;;;;5090877;28;20522;-77
2024/01/01 18:31:45;;;;;;;0.10;0.10;;;10.50;99.90;;;;;;5090077;28;20182;-77
2024/01/01 18:34:12;;;;;;;0.03;0.00;;;10.50;99.90;;;;;;5090031;28;20191;-78
2024/01/01 18:36:37;;;;;;;0.17;0.10;;;10.50;99.90;;;;;;5091276;28;20161;-77
2024/01/01 18:39:03;;;;;;;0.10;0.10;;;10.50;99.90;;;;;;5091376;28;20685;-77
2024/01/01 18:41:29;;;;;;;0.43;0.10;;;10.50;99.90;;;;;;5090778;28;20651;-78
2024/01/01 18:43:55;;;;;;;1.07;0.30;;;10.50;99.90;;;;;;5090910;28;20635;-76
2024/01/01 18:46:21;;;;;;;0.10;0.00;;;10.30;99.90;;;;;;5089982;28;20259;-75
2024/01/01 18:48:46;;;;;;;0.10;0.00;;;10.60;99.90;;;;;;5090933;28;20210;-76
2024/01/01 18:51:12;;;;;;;0.10;0.00;;;10.60;99.90;;;;;;5092045;28;20207;-76
2024/01/01 18:53:39;;;;;;;0.20;0.00;;;10.60;99.90;;;;;;5091250;28;20306;-76
2024/01/01 18:56:05;;;;;;;0.60;0.10;;;10.50;99.90;;;;;;5090815;28;20179;-76
2024/01/01 18:58:33;;;;;;;0.20;0.10;;;10.60;99.90;;;;;;5091003;28;20172;-78
2024/01/01 19:00:59;;;;;;;0.30;0.10;;;10.70;99.90;;;;;;5089837;28;20175;-79
2024/01/01 19:03:24;;;;;;;0.47;0.17;;;10.70;99.90;;;;;;5089441;28;20246;-83
2024/01/01 19:05:50;;;;;;;0.40;0.10;;;10.90;99.90;;;;;;5090400;28;20616;-75
2024/01/01 19:08:16;;;;;;;0.00;0.00;;;10.70;99.90;;;;;;5090914;28;20195;-75
2024/01/01 19:10:42;;;;;;;0.00;0.00;;;10.70;99.90;;;;;;5090421;28;20175;-78
2024/01/01 19:13:08;;;;;;;0.00;0.00;;;10.60;99.90;;;;;;5090537;28;20214;-79
2024/01/01 19:15:33;;;;;;;0.70;0.10;;;10.70;99.90;;;;;;5095378;28;20539;-76
2024/01/01 19:17:59;;;;;;;0.20;0.00;;;10.60;99.90;;;;;;5092814;28;20179;-77
2024/01/01 19:20:25;;;;;;;0.10;0.00;;;10.60;99.90;;;;;;5091030;28;20255;-77
2024/01/01 19:22:51;;;;;;;0.13;0.00;;;10.60;99.90;;;;;;5089205;28;20688;-77
2024/01/01 19:25:17;;;;;;;0.20;0.10;;;10.60;99.90;;;;;;5082261;28;20656;-74
2024/01/01 19:27:42;;;;;;;0.20;0.00;;;10.60;99.90;;;;;;5086636;28;20180;-76
2024/01/01 19:30:09;;;;;;;0.07;0.00;;;10.50;99.90;;;;;;5082824;28;20508;-76
2024/01/01 19:32:36;;;;;;;0.10;0.00;;;10.60;99.90;;;;;;5078107;28;20631;-75
2024/01/01 19:35:02;;;;;;;0.20;0.10;;;10.60;99.90;;;;;;5071522;28;20216;-75
2024/01/01 19:37:28;;;;;;;0.10;0.00;;;10.60;99.90;;;;;;5072758;28;20185;-75
2024/01/01 19:39:53;;;;;;;0.47;0.10;;;10.60;99.90;;;;;;5072859;28;20168;-73
2024/01/01 19:42:20;;;;;;;0.20;0.00;;;10.70;99.90;;;;;;5073842;28;20176;-75
2024/01/01 19:44:46;;;;;;;0.23;0.00;;;10.50;99.90;;;;;;5074063;28;20302;-76
2024/01/01 19:47:11;;;;;;;0.00;0.00;;;10.60;99.90;;;;;;5073889;28;20218;-75
2024/01/01 19:49:37;;;;;;;0.40;0.10;;;10.60;99.90;;;;;;5072878;28;20183;-76
2024/01/01 19:52:03;;;;;;;0.17;0.10;;;10.60;99.90;;;;;;5075288;28;20201;-75
2024/01/01 19:54:29;;;;;;;0.10;0.00;;;10.70;99.90;;;;;;5074495;28;20184;-74
2024/01/01 19:56:55;;;;;;;0.50;0.10;;;10.70;99.90;;;;;;5075297;28;20172;-76
2024/01/01 19:59:20;;;;;;;0.10;0.00;;;10.70;99.90;;;;;;5085139;28;20180;-75
2024/01/01 20:01:46;;;;;;;0.43;0.10;;;10.70;99.90;;;;;;5091944;28;20168;-74
2024/01/01 20:04:14;;;;;;;0.00;0.00;;;10.70;99.90;;;;;;5092939;28;20249;-75
2024/01/01 20:06:43;;;;;;;0.40;0.20;;;10.70;99.90;;;;;;5090616;28;20168;-75
2024/01/01 20:09:09;;;;;;;0.47;0.10;;;10.80;99.90;;;;;;5077632;28;20264;-76
2024/01/01 20:11:35;;;;;;;0.00;0.00;;;10.80;99.90;;;;;;5083301;28;20211;-77
2024/01/01 20:14:03;;;;;;;0.43;0.10;;;10.90;99.90;;;;;;5093222;28;20636;-76
2024/01/01 20:16:29;;;;;;;0.10;0.00;;;11.00;99.90;;;;;;5093001;28;20241;-78
2024/01/01 20:18:55;;;;;;;0.20;0.10;;;11.30;99.90;;;;;;5093392;28;20527;-78
2024/01/01 20:21:25;;;;;;;0.20;0.00;;;11.10;99.90;;;;;;5084926;28;20179;-76
2024/01/01 20:23:51;;;;;;;0.10;0.10;;;11.00;99.90;;;;;;5076517;28;20172;-77
2024/01/01 20:26:19;;;;;;;0.27;0.00;;;11.00;99.90;;;;;;5077182;28;20216;-76
2024/01/01 20:28:46;;;;;;;0.00;0.00;;;11.00;99.90;;;;;;5077061;28;20176;-76
2024/01/01 20:31:12;;;;;;;0.23;0.00;;;11.00;99.90;;;;;;5093214;28;20176;-79
2024/01/01 20:33:37;;;;;;;0.20;0.00;;;11.00;99.90;;;;;;5092616;28;20253;-76
2024/01/01 20:36:04;;;;;;;0.40;0.20;;;11.00;99.90;;;;;;5092916;28;20635;-76
2024/01/01 20:38:30;;;;;;;0.30;0.17;;;11.00;99.90;;;;;;5092382;28;20264;-76
2024/01/01 20:40:55;;;;;;;0.40;0.10;;;10.80;99.90;;;;;;5092264;28;20258;-77
2024/01/01 20:43:21;;;;;;;0.10;0.00;;;10.90;99.90;;;;;;5092151;28;20632;-76
2024/01/01 20:45:47;;;;;;;0.50;0.10;;;11.00;99.90;;;;;;5092569;28;20180;-77
2024/01/01 20:48:13;;;;;;;0.40;0.10;;;11.00;99.90;;;;;;5092397;28;20563;-77
2024/01/01 20:50:42;;;;;;;0.10;0.10;;;11.00;99.90;;;;;;5092553;28;20168;-82
2024/01/01 20:53:07;;;;;;;0.30;0.30;;;11.00;99.90;;;;;;5087201;28;20281;-80
2024/01/01 20:55:33;;;;;;;0.33;0.20;;;11.10;99.90;;;;;;5085383;28;20646;-80
2024/01/01 20:58:00;;;;;;;0.53;0.10;;;11.10;99.90;;;;;;5078271;28;20655;-81
2024/01/01 21:00:26;;;;;;;0.30;0.10;;;11.20;99.90;;;;;;5090995;28;20172;-78
2024/01/01 21:02:54;;;;;;;0.10;0.00;;;11.00;99.90;;;;;;5075206;28;20677;-79
2024/01/01 21:05:23;;;;;;;0.10;0.10;;;11.20;99.90;;;;;;5072668;28;20204;-80
2024/01/01 21:07:48;;;;;;;0.20;0.00;;;11.20;99.90;;;;;;5076481;28;20640;-78
2024/01/01 21:10:14;;;;;;;0.00;0.00;;;11.20;99.90;;;;;;5092334;28;20179;-78
2024/01/01 21:12:40;;;;;;;0.10;0.00;;;11.20;99.90;;;;;;5092077;28;20298;-78
2024/01/01 21:15:07;;;;;;;0.07;0.00;;;11.20;99.90;;;;;;5090555;28;20616;-81
2024/01/01 21:17:32;;;;;;;0.23;0.10;;;11.20;99.90;;;;;;5072979;28;20176;-79
2024/01/01 21:19:58;;;;;;;0.07;0.07;;;11.30;99.90;;;;;;5071961;28;20206;-78
2024/01/01 21:22:24;;;;;;;0.20;0.00;;;11.10;99.90;;;;;;5071842;28;20663;-77
2024/01/01 21:24:50;;;;;;;0.20;0.00;;;11.10;99.90;;;;;;5071262;28;20772;-78
2024/01/01 21:27:17;;;;;;;0.20;0.00;;;11.10;99.90;;;;;;5071734;28;20204;-77
2024/01/01 21:29:44;;;;;;;0.10;0.00;;;11.10;99.90;;;;;;5076058;28;20539;-78
2024/01/01 21:32:10;;;;;;;0.00;0.00;;;11.10;99.90;;;;;;5076742;28;20669;-78
2024/01/01 21:34:37;;;;;;;0.00;0.00;;;11.10;99.90;;;;;;5076705;28;20192;-77
2024/01/01 21:37:02;;;;;;;0.00;0.00;;;11.10;99.90;;;;;;5091854;28;20168;-77
2024/01/01 21:39:28;;;;;;;0.00;0.00;;;11.10;99.90;;;;;;5088110;28;20254;-78
2024/01/01 21:41:54;;;;;;;0.00;0.00;;;11.10;99.90;;;;;;5072287;28;20181;-75
2024/01/01 21:44:20;;;;;;;0.07;0.00;;;10.90;99.90;;;;;;5071270;28;20184;-77
2024/01/01 21:46:46;;;;;;;0.00;0.00;;;11.10;99.90;;;;;;5071330;28;20741;-77
2024/01/01 21:49:12;;;;;;;0.00;0.00;;;11.10;99.90;;;;;;5069751;28;20268;-77
2024/01/01 21:51:37;;;;;;;0.00;0.00;;;11.10;99.90;;;;;;5081973;28;20203;-77
2024/01/01 21:54:03;;;;;;;0.00;0.00;;;11.20;99.90;;;;;;5090782;28;20180;-78
2024/01/01 21:56:28;;;;;;;0.00;0.00;;;11.20;99.90;;;;;;5091263;28;20168;-79
2024/01/01 21:58:54;;;;;;;0.00;0.00;;;11.10;99.90;;;;;;5091183;28;20166;-78
2024/01/01 22:01:20;;;;;;;0.10;0.00;;;11.20;99.90;;;;;;5084874;28;20183;-77
2024/01/01 22:03:46;;;;;;;0.07;0.00;;;;;;;;;;5075614;28;20266;-77
2024/01/01 22:06:12;;;;;;;0.00;0.00;;;11.10;99.90;;;;;;5072001;28;20172;-77
2024/01/01 22:08:38;;;;;;;0.00;0.00;;;11.10;99.90;;;;;;5071106;28;20688;-76
2024/01/01 22:11:04;;;;;;;0.40;0.03;;;11.10;99.90;;;;;;5072471;28;20242;-76
2024/01/01 22:13:29;;;;;;;0.10;0.00;;;11.10;99.90;;;;;;5090315;28;20677;-76
2024/01/01 22:15:55;;;;;;;0.30;0.00;;;11.10;99.90;;;;;;5076953;28;20160;-76
2024/01/01 22:18:21;;;;;;;0.17;0.00;;;11.10;99.90;;;;;;5076156;28;20577;-76
2024/01/01 22:20:47;;;;;;;0.10;0.00;;;11.00;99.90;;;;;;5076372;28;20170;-77
2024/01/01 22:23:13;;;;;;;0.00;0.00;;;11.10;99.90;;;;;;5090289;28;20225;-76
2024/01/01 22:25:39;;;;;;;0.00;0.00;;;11.20;99.90;;;;;;5069345;28;20183;-76
2024/01/01 22:28:05;;;;;;;0.00;0.00;;;11.10;99.90;;;;;;5070990;28;20604;-76
2024/01/01 22:30:31;;;;;;;0.00;0.00;;;11.10;99.90;;;;;;5074229;28;20222;-76
2024/01/01 22:32:56;;;;;;;0.00;0.00;;;11.10;99.90;;;;;;5073053;28;20203;-76
2024/01/01 22:35:22;;;;;;;0.00;0.00;;;11.10;99.90;;;;;;5079334;28;20168;-76
2024/01/01 22:37:48;;;;;;;0.00;0.00;;;11.10;99.90;;;;;;5091089;28;20168;-77
2024/01/01 22:40:14;;;;;;;0.00;0.00;;;11.10;99.90;;;;;;5090484;28;20590;-77
2024/01/01 22:42:39;;;;;;;0.10;0.00;;;11.10;99.90;;;;;;5091117;28;20535;-76
2024/01/01 22:45:06;;;;;;;0.00;0.00;;;11.10;99.90;;;;;;5091005;28;20627;-77
